sensor_id;sensor_type;location;lat;lon;timestamp;pressure;altitude;pressure_sealevel;temperature;humidity
46886;BME280;32622;48.202;11.326;2023-02-01T01:00:10;1026.54;;;0.16;40.52
46886;BME280;32622;48.202;11.326;2023-02-01T01:02:15;1027.10;;;-2.10;39.05
46886;BME280;32622;48.202;11.326;2023-02-01T01:04:36;1027.21;;;-2.61;39.25
46886;BME280;32622;48.202;11.326;2023-02-01T01:06:51;1027.44;;;-3.58;40.72
46886;BME280;32622;48.202;11.326;2023-02-01T01:09:33;1027.18;;;-2.53;38.31
46886;BME280;32622;48.202;11.326;2023-02-01T01:12:15;1027.22;;;-2.82;39.62
46886;BME280;32622;48.202;11.326;2023-02-01T01:14:25;1027.23;;;-2.92;40.06
46886;BME280;32622;48.202;11.326;2023-02-01T01:16:34;1027.14;;;-2.47;39.07
46886;BME280;32622;48.202;11.326;2023-02-01T01:18:37;1027.19;;;-2.75;38.23
46886;BME280;32622;48.202;11.326;2023-02-01T01:20:44;1027.15;;;-2.41;38.96
46886;BME280;32622;48.202;11.326;2023-02-01T01:22:50;1026.96;;;-1.83;38.42
46886;BME280;32622;48.202;11.326;2023-02-01T01:24:54;1027.01;;;-2.11;38.28
46886;BME280;32622;48.202;11.326;2023-02-01T01:27:10;1027.03;;;-2.16;38.43
46886;BME280;32622;48.202;11.326;2023-02-01T01:32:10;1027.02;;;-2.14;38.98
46886;BME280;32622;48.202;11.326;2023-02-01T01:34:20;1026.88;;;-1.69;38.02
46886;BME280;32622;48.202;11.326;2023-02-01T01:36:25;1026.96;;;-1.99;38.38
46886;BME280;32622;48.202;11.326;2023-02-01T01:38:53;1027.04;;;-2.35;38.31
46886;BME280;32622;48.202;11.326;2023-02-01T01:42:09;1027.03;;;-2.45;39.50
46886;BME280;32622;48.202;11.326;2023-02-01T01:46:47;1027.03;;;-2.73;40.79
46886;BME280;32622;48.202;11.326;2023-02-01T01:48:58;1026.86;;;-2.28;38.62
46886;BME280;32622;48.202;11.326;2023-02-01T01:51:13;1026.89;;;-2.36;39.30
46886;BME280;32622;48.202;11.326;2023-02-01T01:53:48;1026.67;;;-1.82;38.44
46886;BME280;32622;48.202;11.326;2023-02-01T01:55:54;1026.78;;;-2.19;38.22
46886;BME280;32622;48.202;11.326;2023-02-01T01:58:13;1026.77;;;-2.33;39.18
46886;BME280;32622;48.202;11.326;2023-02-01T02:00:19;1026.74;;;-2.31;38.72
46886;BME280;32622;48.202;11.326;2023-02-01T02:02:31;1026.76;;;-2.43;40.02
46886;BME280;32622;48.202;11.326;2023-02-01T02:04:36;1026.84;;;-2.90;40.09
46886;BME280;32622;48.202;11.326;2023-02-01T02:06:45;1026.64;;;-2.08;39.22
46886;BME280;32622;48.202;11.326;2023-02-01T02:08:49;1026.40;;;-1.32;37.96
46886;BME280;32622;48.202;11.326;2023-02-01T02:10:54;1026.45;;;-1.64;37.73
46886;BME280;32622;48.202;11.326;2023-02-01T02:13:23;1026.37;;;-1.37;37.05
46886;BME280;32622;48.202;11.326;2023-02-01T02:15:30;1026.47;;;-1.44;37.42
46886;BME280;32622;48.202;11.326;2023-02-01T02:17:42;1026.59;;;-1.73;38.07
46886;BME280;32622;48.202;11.326;2023-02-01T02:22:45;1026.70;;;-1.89;37.89
46886;BME280;32622;48.202;11.326;2023-02-01T02:25:15;1026.52;;;-0.94;36.59
46886;BME280;32622;48.202;11.326;2023-02-01T02:27:23;1026.57;;;-1.52;37.14
46886;BME280;32622;48.202;11.326;2023-02-01T02:32:28;1026.55;;;-1.12;36.58
46886;BME280;32622;48.202;11.326;2023-02-01T02:34:41;1026.47;;;-0.77;36.32
46886;BME280;32622;48.202;11.326;2023-02-01T02:36:55;1026.86;;;-1.99;37.89
46886;BME280;32622;48.202;11.326;2023-02-01T02:39:06;1026.72;;;-1.81;36.51
46886;BME280;32622;48.202;11.326;2023-02-01T02:41:15;1026.69;;;-1.79;37.03
46886;BME280;32622;48.202;11.326;2023-02-01T02:43:23;1026.64;;;-1.79;37.66
46886;BME280;32622;48.202;11.326;2023-02-01T02:45:40;1026.19;;;-0.17;35.77
46886;BME280;32622;48.202;11.326;2023-02-01T02:47:56;1026.32;;;-0.81;36.01
46886;BME280;32622;48.202;11.326;2023-02-01T02:50:11;1026.55;;;-1.78;37.39
46886;BME280;32622;48.202;11.326;2023-02-01T02:52:23;1026.48;;;-1.70;37.14
46886;BME280;32622;48.202;11.326;2023-02-01T02:54:31;1026.52;;;-1.76;37.83
46886;BME280;32622;48.202;11.326;2023-02-01T02:56:36;1026.47;;;-1.88;37.23
46886;BME280;32622;48.202;11.326;2023-02-01T02:58:42;1026.32;;;-1.20;36.38
46886;BME280;32622;48.202;11.326;2023-02-01T03:00:47;1026.30;;;-1.17;36.63
46886;BME280;32622;48.202;11.326;2023-02-01T03:02:51;1026.16;;;-0.84;35.53
46886;BME280;32622;48.202;11.326;2023-02-01T03:04:55;1026.14;;;-0.69;35.66
46886;BME280;32622;48.202;11.326;2023-02-01T03:07:13;1026.30;;;-1.61;36.64
46886;BME280;32622;48.202;11.326;2023-02-01T03:09:25;1026.04;;;-0.83;36.15
46886;BME280;32622;48.202;11.326;2023-02-01T03:11:31;1026.06;;;-1.17;36.17
46886;BME280;32622;48.202;11.326;2023-02-01T03:13:47;1026.18;;;-1.38;36.49
46886;BME280;32622;48.202;11.326;2023-02-01T03:16:01;1025.97;;;-0.94;36.33
46886;BME280;32622;48.202;11.326;2023-02-01T03:18:13;1026.04;;;-1.16;36.02
46886;BME280;32622;48.202;11.326;2023-02-01T03:20:20;1026.11;;;-1.54;36.38
46886;BME280;32622;48.202;11.326;2023-02-01T03:22:49;1026.14;;;-1.65;36.12
46886;BME280;32622;48.202;11.326;2023-02-01T03:24:59;1025.87;;;-0.53;35.55
46886;BME280;32622;48.202;11.326;2023-02-01T03:27:10;1026.05;;;-1.53;36.88
46886;BME280;32622;48.202;11.326;2023-02-01T03:29:22;1026.23;;;-1.93;37.83
46886;BME280;32622;48.202;11.326;2023-02-01T03:31:33;1026.44;;;-2.75;39.31
46886;BME280;32622;48.202;11.326;2023-02-01T03:33:54;1026.07;;;-1.72;37.52
46886;BME280;32622;48.202;11.326;2023-02-01T03:36:24;1026.37;;;-2.58;37.98
46886;BME280;32622;48.202;11.326;2023-02-01T03:38:34;1026.38;;;-2.43;37.75
46886;BME280;32622;48.202;11.326;2023-02-01T03:43:48;1025.55;;;0.79;39.09
46886;BME280;32622;48.202;11.326;2023-02-01T03:46:00;1026.26;;;-2.51;38.88
46886;BME280;32622;48.202;11.326;2023-02-01T03:48:07;1026.12;;;-2.16;37.43
46886;BME280;32622;48.202;11.326;2023-02-01T03:50:25;1025.93;;;-1.54;36.46
46886;BME280;32622;48.202;11.326;2023-02-01T03:52:37;1026.40;;;-3.22;39.78
46886;BME280;32622;48.202;11.326;2023-02-01T03:54:54;1026.25;;;-2.45;38.57
46886;BME280;32622;48.202;11.326;2023-02-01T03:57:12;1026.21;;;-2.38;38.37
46886;BME280;32622;48.202;11.326;2023-02-01T03:59:20;1026.00;;;-1.90;37.20
46886;BME280;32622;48.202;11.326;2023-02-01T04:06:59;1025.57;;;0.47;40.58
46886;BME280;32622;48.202;11.326;2023-02-01T04:09:49;1026.40;;;-2.80;40.08
46886;BME280;32622;48.202;11.326;2023-02-01T04:11:59;1026.36;;;-2.93;40.32
46886;BME280;32622;48.202;11.326;2023-02-01T04:14:39;1026.14;;;-2.17;38.44
46886;BME280;32622;48.202;11.326;2023-02-01T04:35:56;1026.22;;;-2.13;38.20
46886;BME280;32622;48.202;11.326;2023-02-01T04:38:02;1026.39;;;-2.71;38.34
46886;BME280;32622;48.202;11.326;2023-02-01T04:40:09;1026.18;;;-1.94;37.94
46886;BME280;32622;48.202;11.326;2023-02-01T04:42:12;1026.27;;;-2.34;37.68
46886;BME280;32622;48.202;11.326;2023-02-01T04:44:17;1026.48;;;-3.30;39.09
46886;BME280;32622;48.202;11.326;2023-02-01T04:46:38;1026.15;;;-2.04;37.76
46886;BME280;32622;48.202;11.326;2023-02-01T04:56:51;1026.42;;;-2.86;39.44
46886;BME280;32622;48.202;11.326;2023-02-01T04:59:02;1026.44;;;-2.92;38.96
46886;BME280;32622;48.202;11.326;2023-02-01T05:01:14;1026.55;;;-3.14;39.03
46886;BME280;32622;48.202;11.326;2023-02-01T05:03:53;1026.24;;;-1.76;37.10
46886;BME280;32622;48.202;11.326;2023-02-01T05:06:26;1026.28;;;-1.87;36.72
46886;BME280;32622;48.202;11.326;2023-02-01T05:10:12;1025.79;;;-0.05;39.09
46886;BME280;32622;48.202;11.326;2023-02-01T05:12:15;1026.38;;;-2.51;38.26
46886;BME280;32622;48.202;11.326;2023-02-01T05:14:19;1026.50;;;-2.73;38.34
46886;BME280;32622;48.202;11.326;2023-02-01T05:16:23;1026.42;;;-2.50;38.34
46886;BME280;32622;48.202;11.326;2023-02-01T05:18:26;1026.50;;;-2.88;38.66
46886;BME280;32622;48.202;11.326;2023-02-01T05:20:29;1026.13;;;-1.56;36.99
46886;BME280;32622;48.202;11.326;2023-02-01T05:22:32;1026.15;;;-1.65;36.47
46886;BME280;32622;48.202;11.326;2023-02-01T05:24:35;1026.17;;;-1.48;35.89
46886;BME280;32622;48.202;11.326;2023-02-01T05:26:39;1026.36;;;-2.35;36.44
46886;BME280;32622;48.202;11.326;2023-02-01T05:28:42;1026.01;;;-1.35;35.48
46886;BME280;32622;48.202;11.326;2023-02-01T05:30:45;1026.58;;;-2.89;37.16
46886;BME280;32622;48.202;11.326;2023-02-01T05:32:50;1026.21;;;-1.90;35.94
46886;BME280;32622;48.202;11.326;2023-02-01T05:34:53;1026.06;;;-1.19;35.59
46886;BME280;32622;48.202;11.326;2023-02-01T05:36:57;1026.13;;;-2.01;35.85
46886;BME280;32622;48.202;11.326;2023-02-01T05:39:00;1026.05;;;-1.95;36.29
46886;BME280;32622;48.202;11.326;2023-02-01T05:41:03;1026.20;;;-2.55;36.77
46886;BME280;32622;48.202;11.326;2023-02-01T05:43:07;1025.89;;;-1.39;35.37
46886;BME280;32622;48.202;11.326;2023-02-01T05:45:10;1025.98;;;-1.73;35.65
46886;BME280;32622;48.202;11.326;2023-02-01T05:47:13;1025.83;;;-1.50;35.93
46886;BME280;32622;48.202;11.326;2023-02-01T05:49:18;1026.08;;;-2.42;36.80
46886;BME280;32622;48.202;11.326;2023-02-01T05:51:21;1025.88;;;-1.88;36.37
46886;BME280;32622;48.202;11.326;2023-02-01T05:53:25;1026.40;;;-3.58;39.36
46886;BME280;32622;48.202;11.326;2023-02-01T05:55:28;1026.29;;;-2.80;39.16
46886;BME280;32622;48.202;11.326;2023-02-01T05:57:31;1026.42;;;-3.31;39.95
46886;BME280;32622;48.202;11.326;2023-02-01T05:59:35;1026.34;;;-2.95;39.42
46886;BME280;32622;48.202;11.326;2023-02-01T06:01:38;1026.35;;;-3.01;39.49
46886;BME280;32622;48.202;11.326;2023-02-01T06:03:41;1026.36;;;-2.96;39.18
46886;BME280;32622;48.202;11.326;2023-02-01T06:05:45;1025.99;;;-1.95;37.40
46886;BME280;32622;48.202;11.326;2023-02-01T06:07:48;1025.91;;;-1.90;36.52
46886;BME280;32622;48.202;11.326;2023-02-01T06:09:52;1025.89;;;-1.63;36.05
46886;BME280;32622;48.202;11.326;2023-02-01T06:11:55;1025.86;;;-1.21;35.44
46886;BME280;32622;48.202;11.326;2023-02-01T06:15:16;1025.48;;;0.57;34.95
46886;BME280;32622;48.202;11.326;2023-02-01T06:17:20;1026.24;;;-2.33;37.55
46886;BME280;32622;48.202;11.326;2023-02-01T06:19:23;1026.15;;;-2.15;37.18
46886;BME280;32622;48.202;11.326;2023-02-01T06:21:27;1026.26;;;-2.73;37.37
46886;BME280;32622;48.202;11.326;2023-02-01T06:23:31;1025.97;;;-2.20;35.96
46886;BME280;32622;48.202;11.326;2023-02-01T06:25:34;1026.04;;;-2.37;36.99
46886;BME280;32622;48.202;11.326;2023-02-01T06:27:39;1026.19;;;-2.71;37.23
46886;BME280;32622;48.202;11.326;2023-02-01T06:29:41;1025.86;;;-2.11;36.55
46886;BME280;32622;48.202;11.326;2023-02-01T06:31:45;1025.99;;;-2.21;35.49
46886;BME280;32622;48.202;11.326;2023-02-01T06:33:48;1025.76;;;-1.33;35.20
46886;BME280;32622;48.202;11.326;2023-02-01T06:35:57;1025.81;;;-1.27;34.73
46886;BME280;32622;48.202;11.326;2023-02-01T06:38:28;1026.06;;;-2.25;35.04
46886;BME280;32622;48.202;11.326;2023-02-01T06:40:39;1026.34;;;-2.97;37.42
46886;BME280;32622;48.202;11.326;2023-02-01T06:42:49;1026.06;;;-2.58;37.15
46886;BME280;32622;48.202;11.326;2023-02-01T06:44:58;1025.93;;;-2.05;36.52
46886;BME280;32622;48.202;11.326;2023-02-01T06:47:35;1025.91;;;-2.33;35.82
46886;BME280;32622;48.202;11.326;2023-02-01T06:49:44;1026.09;;;-2.86;36.81
46886;BME280;32622;48.202;11.326;2023-02-01T06:51:50;1026.30;;;-3.22;37.10
46886;BME280;32622;48.202;11.326;2023-02-01T06:53:54;1026.20;;;-3.00;37.27
46886;BME280;32622;48.202;11.326;2023-02-01T06:55:59;1026.25;;;-2.75;36.40
46886;BME280;32622;48.202;11.326;2023-02-01T06:58:07;1026.43;;;-3.73;38.40
46886;BME280;32622;48.202;11.326;2023-02-01T07:00:12;1025.97;;;-2.35;36.23
46886;BME280;32622;48.202;11.326;2023-02-01T07:02:18;1026.22;;;-2.98;36.62
46886;BME280;32622;48.202;11.326;2023-02-01T07:04:21;1026.12;;;-2.63;36.99
46886;BME280;32622;48.202;11.326;2023-02-01T07:06:26;1026.07;;;-2.55;37.10
46886;BME280;32622;48.202;11.326;2023-02-01T07:08:31;1025.99;;;-3.05;37.51
46886;BME280;32622;48.202;11.326;2023-02-01T07:10:34;1026.21;;;-3.33;37.65
46886;BME280;32622;48.202;11.326;2023-02-01T07:12:39;1026.39;;;-4.47;39.20
46886;BME280;32622;48.202;11.326;2023-02-01T07:14:44;1026.28;;;-3.97;38.57
46886;BME280;32622;48.202;11.326;2023-02-01T07:16:49;1026.06;;;-2.95;36.98
46886;BME280;32622;48.202;11.326;2023-02-01T07:18:53;1025.95;;;-2.62;36.63
46886;BME280;32622;48.202;11.326;2023-02-01T07:20:57;1025.92;;;-2.55;36.14
46886;BME280;32622;48.202;11.326;2023-02-01T07:23:01;1025.95;;;-2.27;35.09
46886;BME280;32622;48.202;11.326;2023-02-01T07:25:05;1025.97;;;-2.70;35.88
46886;BME280;32622;48.202;11.326;2023-02-01T07:27:09;1025.74;;;-1.63;34.41
46886;BME280;32622;48.202;11.326;2023-02-01T07:29:13;1025.72;;;-2.02;34.64
46886;BME280;32622;48.202;11.326;2023-02-01T07:31:18;1026.07;;;-3.05;36.09
46886;BME280;32622;48.202;11.326;2023-02-01T07:33:23;1026.12;;;-2.89;35.96
46886;BME280;32622;48.202;11.326;2023-02-01T07:35:27;1025.83;;;-2.16;34.55
46886;BME280;32622;48.202;11.326;2023-02-01T07:37:31;1025.73;;;-1.66;33.89
46886;BME280;32622;48.202;11.326;2023-02-01T07:39:35;1025.84;;;-2.04;34.82
46886;BME280;32622;48.202;11.326;2023-02-01T07:41:38;1025.68;;;-1.75;34.57
46886;BME280;32622;48.202;11.326;2023-02-01T07:43:42;1026.15;;;-3.12;36.37
46886;BME280;32622;48.202;11.326;2023-02-01T07:45:51;1026.11;;;-3.12;36.91
46886;BME280;32622;48.202;11.326;2023-02-01T07:47:56;1026.28;;;-3.75;37.73
46886;BME280;32622;48.202;11.326;2023-02-01T07:50:03;1026.30;;;-3.60;37.52
46886;BME280;32622;48.202;11.326;2023-02-01T07:52:11;1025.98;;;-2.30;36.41
46886;BME280;32622;48.202;11.326;2023-02-01T07:54:17;1026.03;;;-1.95;35.25
46886;BME280;32622;48.202;11.326;2023-02-01T07:56:21;1026.30;;;-3.22;36.24
46886;BME280;32622;48.202;11.326;2023-02-01T07:58:27;1026.19;;;-2.54;35.71
46886;BME280;32622;48.202;11.326;2023-02-01T08:00:32;1026.40;;;-2.92;36.57
46886;BME280;32622;48.202;11.326;2023-02-01T08:02:38;1026.39;;;-2.93;36.56
46886;BME280;32622;48.202;11.326;2023-02-01T08:04:49;1026.39;;;-2.75;36.43
46886;BME280;32622;48.202;11.326;2023-02-01T08:07:00;1026.55;;;-3.84;38.24
46886;BME280;32622;48.202;11.326;2023-02-01T08:09:07;1026.50;;;-2.99;37.07
46886;BME280;32622;48.202;11.326;2023-02-01T08:11:25;1026.48;;;-2.92;36.56
46886;BME280;32622;48.202;11.326;2023-02-01T08:13:41;1026.48;;;-2.83;36.68
46886;BME280;32622;48.202;11.326;2023-02-01T08:15:47;1026.40;;;-2.68;36.22
46886;BME280;32622;48.202;11.326;2023-02-01T08:17:52;1026.60;;;-3.13;37.39
46886;BME280;32622;48.202;11.326;2023-02-01T08:20:02;1026.40;;;-2.51;35.52
46886;BME280;32622;48.202;11.326;2023-02-01T08:22:07;1026.35;;;-2.22;35.42
46886;BME280;32622;48.202;11.326;2023-02-01T08:24:11;1026.38;;;-2.73;35.66
46886;BME280;32622;48.202;11.326;2023-02-01T08:26:17;1026.39;;;-2.90;35.69
46886;BME280;32622;48.202;11.326;2023-02-01T08:28:22;1026.46;;;-2.14;35.95
46886;BME280;32622;48.202;11.326;2023-02-01T08:30:25;1026.80;;;-3.43;37.35
46886;BME280;32622;48.202;11.326;2023-02-01T08:32:29;1026.77;;;-3.94;37.80
46886;BME280;32622;48.202;11.326;2023-02-01T08:34:33;1026.58;;;-2.90;37.31
46886;BME280;32622;48.202;11.326;2023-02-01T08:36:36;1026.72;;;-3.54;38.01
46886;BME280;32622;48.202;11.326;2023-02-01T08:38:40;1026.54;;;-2.82;36.55
46886;BME280;32622;48.202;11.326;2023-02-01T08:40:46;1026.36;;;-2.69;35.62
46886;BME280;32622;48.202;11.326;2023-02-01T08:42:49;1026.67;;;-3.43;36.82
46886;BME280;32622;48.202;11.326;2023-02-01T08:44:53;1026.29;;;-2.11;35.36
46886;BME280;32622;48.202;11.326;2023-02-01T08:46:58;1026.65;;;-3.66;36.45
46886;BME280;32622;48.202;11.326;2023-02-01T08:49:10;1026.54;;;-3.12;36.28
46886;BME280;32622;48.202;11.326;2023-02-01T08:51:17;1026.56;;;-2.89;35.44
46886;BME280;32622;48.202;11.326;2023-02-01T08:53:22;1026.58;;;-3.21;36.76
46886;BME280;32622;48.202;11.326;2023-02-01T08:55:26;1026.36;;;-2.30;34.96
46886;BME280;32622;48.202;11.326;2023-02-01T08:57:29;1026.26;;;-1.89;33.81
46886;BME280;32622;48.202;11.326;2023-02-01T08:59:33;1026.02;;;-1.16;33.01
46886;BME280;32622;48.202;11.326;2023-02-01T09:02:09;1025.66;;;0.22;34.47
46886;BME280;32622;48.202;11.326;2023-02-01T09:17:53;1026.95;;;-4.04;39.16
46886;BME280;32622;48.202;11.326;2023-02-01T09:19:57;1026.86;;;-3.88;39.50
46886;BME280;32622;48.202;11.326;2023-02-01T09:22:00;1026.84;;;-3.51;37.62
46886;BME280;32622;48.202;11.326;2023-02-01T09:24:04;1026.34;;;-2.04;36.06
46886;BME280;32622;48.202;11.326;2023-02-01T09:26:08;1026.55;;;-2.88;36.34
46886;BME280;32622;48.202;11.326;2023-02-01T09:28:11;1026.60;;;-3.17;36.84
46886;BME280;32622;48.202;11.326;2023-02-01T09:30:14;1026.79;;;-3.88;37.94
46886;BME280;32622;48.202;11.326;2023-02-01T09:32:18;1026.69;;;-3.23;37.42
46886;BME280;32622;48.202;11.326;2023-02-01T09:34:21;1026.99;;;-4.06;38.09
46886;BME280;32622;48.202;11.326;2023-02-01T09:36:25;1026.43;;;-2.08;36.58
46886;BME280;32622;48.202;11.326;2023-02-01T09:38:28;1026.26;;;-1.44;35.26
46886;BME280;32622;48.202;11.326;2023-02-01T09:40:34;1026.30;;;-2.00;35.99
46886;BME280;32622;48.202;11.326;2023-02-01T09:42:52;1026.09;;;-1.43;34.93
46886;BME280;32622;48.202;11.326;2023-02-01T09:45:10;1026.57;;;-2.49;35.71
46886;BME280;32622;48.202;11.326;2023-02-01T09:47:20;1026.15;;;-1.35;35.00
46886;BME280;32622;48.202;11.326;2023-02-01T09:49:29;1026.04;;;-0.54;33.81
46886;BME280;32622;48.202;11.326;2023-02-01T09:51:36;1026.34;;;-2.22;34.76
46886;BME280;32622;48.202;11.326;2023-02-01T09:53:42;1026.39;;;-2.29;35.27
46886;BME280;32622;48.202;11.326;2023-02-01T09:55:49;1026.81;;;-3.34;36.65
46886;BME280;32622;48.202;11.326;2023-02-01T09:57:55;1026.70;;;-2.88;36.98
46886;BME280;32622;48.202;11.326;2023-02-01T10:00:04;1026.51;;;-2.04;37.10
46886;BME280;32622;48.202;11.326;2023-02-01T10:02:14;1026.59;;;-2.52;36.77
46886;BME280;32622;48.202;11.326;2023-02-01T10:04:19;1026.32;;;-1.83;35.76
46886;BME280;32622;48.202;11.326;2023-02-01T10:06:33;1026.47;;;-2.59;36.40
46886;BME280;32622;48.202;11.326;2023-02-01T10:08:57;1026.15;;;-1.63;35.14
46886;BME280;32622;48.202;11.326;2023-02-01T10:11:16;1026.20;;;-1.54;34.56
46886;BME280;32622;48.202;11.326;2023-02-01T10:13:36;1026.02;;;-0.48;33.44
46886;BME280;32622;48.202;11.326;2023-02-01T10:15:52;1026.08;;;-0.48;33.05
46886;BME280;32622;48.202;11.326;2023-02-01T10:18:13;1026.17;;;-0.68;32.83
46886;BME280;32622;48.202;11.326;2023-02-01T10:20:22;1026.30;;;-0.88;33.71
46886;BME280;32622;48.202;11.326;2023-02-01T10:22:39;1026.42;;;-1.57;34.45
46886;BME280;32622;48.202;11.326;2023-02-01T10:24:45;1026.95;;;-2.80;37.12
46886;BME280;32622;48.202;11.326;2023-02-01T10:26:54;1026.80;;;-2.31;36.28
46886;BME280;32622;48.202;11.326;2023-02-01T10:29:02;1026.93;;;-2.57;36.49
46886;BME280;32622;48.202;11.326;2023-02-01T10:31:09;1026.86;;;-2.73;36.38
46886;BME280;32622;48.202;11.326;2023-02-01T10:33:17;1026.67;;;-2.06;35.51
46886;BME280;32622;48.202;11.326;2023-02-01T10:35:26;1026.69;;;-1.70;35.86
46886;BME280;32622;48.202;11.326;2023-02-01T10:37:32;1026.83;;;-2.48;36.18
46886;BME280;32622;48.202;11.326;2023-02-01T10:39:36;1026.48;;;-1.00;34.30
46886;BME280;32622;48.202;11.326;2023-02-01T10:41:40;1026.69;;;-1.84;34.72
46886;BME280;32622;48.202;11.326;2023-02-01T10:43:45;1026.94;;;-2.90;37.20
46886;BME280;32622;48.202;11.326;2023-02-01T10:45:51;1027.11;;;-3.19;37.30
46886;BME280;32622;48.202;11.326;2023-02-01T10:47:56;1026.95;;;-2.35;37.28
46886;BME280;32622;48.202;11.326;2023-02-01T10:50:08;1026.67;;;-1.52;34.72
46886;BME280;32622;48.202;11.326;2023-02-01T10:52:18;1026.66;;;-2.06;35.32
46886;BME280;32622;48.202;11.326;2023-02-01T10:54:33;1026.54;;;-1.41;34.59
46886;BME280;32622;48.202;11.326;2023-02-01T10:56:38;1026.35;;;-0.28;33.62
46886;BME280;32622;48.202;11.326;2023-02-01T10:58:45;1026.53;;;-1.10;33.85
46886;BME280;32622;48.202;11.326;2023-02-01T11:00:53;1026.57;;;-1.16;33.92
46886;BME280;32622;48.202;11.326;2023-02-01T11:02:56;1026.30;;;-0.13;32.50
46886;BME280;32622;48.202;11.326;2023-02-01T11:05:01;1026.33;;;-0.36;32.41
46886;BME280;32622;48.202;11.326;2023-02-01T11:07:12;1026.49;;;-0.79;33.25
46886;BME280;32622;48.202;11.326;2023-02-01T11:09:19;1026.37;;;-0.40;32.97
46886;BME280;32622;48.202;11.326;2023-02-01T11:11:24;1026.50;;;-0.98;33.64
46886;BME280;32622;48.202;11.326;2023-02-01T11:13:30;1026.28;;;-0.29;33.13
46886;BME280;32622;48.202;11.326;2023-02-01T11:15:33;1026.33;;;-0.37;32.45
46886;BME280;32622;48.202;11.326;2023-02-01T11:17:40;1026.23;;;-0.02;32.77
46886;BME280;32622;48.202;11.326;2023-02-01T11:19:45;1026.40;;;-0.62;33.46
46886;BME280;32622;48.202;11.326;2023-02-01T11:21:51;1026.64;;;-2.12;35.43
46886;BME280;32622;48.202;11.326;2023-02-01T11:23:56;1026.79;;;-2.37;36.73
46886;BME280;32622;48.202;11.326;2023-02-01T11:26:11;1026.77;;;-1.87;36.28
46886;BME280;32622;48.202;11.326;2023-02-01T11:28:16;1026.90;;;-2.41;36.25
46886;BME280;32622;48.202;11.326;2023-02-01T11:30:29;1026.53;;;-1.47;35.10
46886;BME280;32622;48.202;11.326;2023-02-01T11:32:34;1026.50;;;-0.96;34.42
46886;BME280;32622;48.202;11.326;2023-02-01T11:34:40;1026.61;;;-1.64;34.95
46886;BME280;32622;48.202;11.326;2023-02-01T11:36:46;1026.76;;;-1.96;35.97
46886;BME280;32622;48.202;11.326;2023-02-01T11:38:53;1026.75;;;-1.77;35.78
46886;BME280;32622;48.202;11.326;2023-02-01T11:41:12;1027.02;;;-2.87;36.67
46886;BME280;32622;48.202;11.326;2023-02-01T11:43:22;1027.23;;;-2.85;37.21
46886;BME280;32622;48.202;11.326;2023-02-01T11:45:28;1027.17;;;-3.39;38.45
46886;BME280;32622;48.202;11.326;2023-02-01T11:47:40;1026.99;;;-2.29;37.46
46886;BME280;32622;48.202;11.326;2023-02-01T11:49:43;1027.06;;;-2.67;37.24
46886;BME280;32622;48.202;11.326;2023-02-01T11:51:56;1027.06;;;-2.73;37.53
46886;BME280;32622;48.202;11.326;2023-02-01T11:54:14;1027.02;;;-2.66;38.36
46886;BME280;32622;48.202;11.326;2023-02-01T11:56:28;1026.98;;;-2.76;38.21
46886;BME280;32622;48.202;11.326;2023-02-01T12:01:21;1026.69;;;-1.99;35.99
46886;BME280;32622;48.202;11.326;2023-02-01T12:03:47;1026.53;;;-1.64;35.37
46886;BME280;32622;48.202;11.326;2023-02-01T12:05:59;1026.47;;;-1.45;35.25
46886;BME280;32622;48.202;11.326;2023-02-01T12:08:21;1026.44;;;-1.53;35.42
46886;BME280;32622;48.202;11.326;2023-02-01T12:10:33;1026.51;;;-1.29;35.07
46886;BME280;32622;48.202;11.326;2023-02-01T12:12:44;1026.79;;;-2.41;35.92
46886;BME280;32622;48.202;11.326;2023-02-01T12:15:08;1026.66;;;-2.04;35.76
46886;BME280;32622;48.202;11.326;2023-02-01T12:17:31;1026.86;;;-2.64;37.01
46886;BME280;32622;48.202;11.326;2023-02-01T12:19:54;1026.60;;;-2.07;35.62
46886;BME280;32622;48.202;11.326;2023-02-01T12:22:12;1026.35;;;-1.44;34.91
46886;BME280;32622;48.202;11.326;2023-02-01T12:24:30;1026.56;;;-2.25;35.03
46886;BME280;32622;48.202;11.326;2023-02-01T12:26:46;1026.11;;;-0.77;33.34
46886;BME280;32622;48.202;11.326;2023-02-01T12:29:10;1026.03;;;-0.44;32.51
46886;BME280;32622;48.202;11.326;2023-02-01T12:31:30;1026.15;;;-0.80;32.64
46886;BME280;32622;48.202;11.326;2023-02-01T12:33:48;1026.35;;;-1.66;34.24
46886;BME280;32622;48.202;11.326;2023-02-01T12:36:08;1026.24;;;-1.31;34.20
46886;BME280;32622;48.202;11.326;2023-02-01T12:38:24;1026.44;;;-2.16;35.16
46886;BME280;32622;48.202;11.326;2023-02-01T12:40:43;1026.22;;;-1.34;33.90
46886;BME280;32622;48.202;11.326;2023-02-01T12:42:56;1026.45;;;-2.42;35.41
46886;BME280;32622;48.202;11.326;2023-02-01T12:45:10;1026.20;;;-1.76;34.72
46886;BME280;32622;48.202;11.326;2023-02-01T12:47:20;1026.05;;;-1.38;33.31
46886;BME280;32622;48.202;11.326;2023-02-01T12:49:31;1026.24;;;-2.46;34.03
46886;BME280;32622;48.202;11.326;2023-02-01T12:51:40;1026.02;;;-2.00;33.92
46886;BME280;32622;48.202;11.326;2023-02-01T12:53:50;1026.20;;;-2.30;34.75
46886;BME280;32622;48.202;11.326;2023-02-01T12:55:56;1025.95;;;-1.05;33.30
46886;BME280;32622;48.202;11.326;2023-02-01T12:58:06;1026.15;;;-2.24;33.78
46886;BME280;32622;48.202;11.326;2023-02-01T13:00:19;1025.88;;;-1.50;33.67
46886;BME280;32622;48.202;11.326;2023-02-01T13:02:30;1025.99;;;-1.82;34.12
46886;BME280;32622;48.202;11.326;2023-02-01T13:04:42;1025.89;;;-1.33;33.64
46886;BME280;32622;48.202;11.326;2023-02-01T13:06:49;1025.90;;;-1.62;33.72
46886;BME280;32622;48.202;11.326;2023-02-01T13:08:58;1026.06;;;-2.33;34.73
46886;BME280;32622;48.202;11.326;2023-02-01T13:11:08;1025.96;;;-1.83;34.73
46886;BME280;32622;48.202;11.326;2023-02-01T13:13:20;1025.98;;;-2.06;34.96
46886;BME280;32622;48.202;11.326;2023-02-01T13:15:27;1025.89;;;-1.51;33.65
46886;BME280;32622;48.202;11.326;2023-02-01T13:17:33;1025.42;;;0.27;32.21
46886;BME280;32622;48.202;11.326;2023-02-01T13:19:43;1025.68;;;-0.86;33.33
46886;BME280;32622;48.202;11.326;2023-02-01T13:21:50;1025.58;;;-0.64;32.63
46886;BME280;32622;48.202;11.326;2023-02-01T13:23:54;1025.42;;;-0.16;32.00
46886;BME280;32622;48.202;11.326;2023-02-01T13:25:57;1025.49;;;-0.50;32.27
46886;BME280;32622;48.202;11.326;2023-02-01T13:28:06;1025.28;;;0.46;30.95
46886;BME280;32622;48.202;11.326;2023-02-01T13:30:15;1025.30;;;0.03;31.54
46886;BME280;32622;48.202;11.326;2023-02-01T13:32:37;1025.31;;;0.01;31.66